createdAt,value
2023-01-23T00:00:35.858Z,10.10
2023-01-23T00:05:41.247Z,9.73
2023-01-23T00:10:46.776Z,9.80
2023-01-23T00:15:52.537Z,10.23
2023-01-23T00:20:58.914Z,11.43
2023-01-23T00:26:07.082Z,9.80
2023-01-23T00:31:15.976Z,9.80
2023-01-23T00:36:21.781Z,9.40
2023-01-23T00:41:28.270Z,10.00
2023-01-23T00:46:35.171Z,9.13
2023-01-23T00:51:40.713Z,9.60
2023-01-23T00:56:46.156Z,10.13
2023-01-23T01:01:53.087Z,9.77
2023-01-23T01:06:59.630Z,10.20
2023-01-23T01:12:05.342Z,9.23
2023-01-23T01:17:10.884Z,8.63
2023-01-23T01:22:16.617Z,9.47
2023-01-23T01:27:22.797Z,9.20
2023-01-23T01:32:28.758Z,9.43
2023-01-23T01:37:36.746Z,8.53
2023-01-23T01:42:45.023Z,9.97
2023-01-23T01:47:50.416Z,8.00
2023-01-23T01:52:56.219Z,9.50
2023-01-23T01:58:02.853Z,8.53
2023-01-23T02:03:09.055Z,8.63
2023-01-23T02:08:30.194Z,9.37
2023-01-23T02:13:39.944Z,9.23
2023-01-23T02:18:51.453Z,9.37
2023-01-23T02:24:04.865Z,9.90
2023-01-23T02:29:11.351Z,8.97
2023-01-23T02:34:22.936Z,9.37
2023-01-23T02:39:28.542Z,9.90
2023-01-23T02:44:34.556Z,8.30
2023-01-23T02:49:42.912Z,9.03
2023-01-23T02:54:48.702Z,7.80
2023-01-23T03:00:12.180Z,8.63
2023-01-23T03:05:19.441Z,7.97
2023-01-23T03:10:24.998Z,8.60
2023-01-23T03:15:31.649Z,7.83
2023-01-23T03:20:42.337Z,8.37
2023-01-23T03:25:49.143Z,7.97
2023-01-23T03:30:54.689Z,9.00
2023-01-23T03:36:01.245Z,9.17
2023-01-23T03:41:25.486Z,9.80
2023-01-23T03:46:32.839Z,9.13
2023-01-23T03:51:38.739Z,7.87
2023-01-23T03:56:44.477Z,7.57
2023-01-23T04:02:12.737Z,8.37
2023-01-23T04:07:18.375Z,7.80
2023-01-23T04:12:25.588Z,7.90
2023-01-23T04:17:32.544Z,8.37
2023-01-23T04:22:38.244Z,8.60
2023-01-23T04:27:43.878Z,7.87
2023-01-23T04:32:50.100Z,8.37
2023-01-23T04:37:56.762Z,8.57
2023-01-23T04:43:03.450Z,9.27
2023-01-23T04:48:11.319Z,8.93
2023-01-23T04:53:17.263Z,8.87
2023-01-23T04:58:23.808Z,8.83
2023-01-23T05:03:29.538Z,8.27
2023-01-23T05:08:35.301Z,8.87
2023-01-23T05:13:42.642Z,8.63
2023-01-23T05:18:48.515Z,9.53
2023-01-23T05:23:54.737Z,9.30
2023-01-23T05:29:00.563Z,8.93
2023-01-23T05:34:06.955Z,8.40
2023-01-23T05:39:14.174Z,8.53
2023-01-23T05:44:21.026Z,8.23
2023-01-23T05:49:28.256Z,9.03
2023-01-23T05:54:34.423Z,8.80
2023-01-23T05:59:40.544Z,8.83
2023-01-23T06:04:55.916Z,8.93
2023-01-23T06:10:03.173Z,8.83
2023-01-23T06:15:10.997Z,8.13
2023-01-23T06:20:16.810Z,9.03
2023-01-23T06:25:23.395Z,8.37
2023-01-23T06:30:30.470Z,8.90
2023-01-23T06:35:36.122Z,9.07
2023-01-23T06:40:45.131Z,8.87
2023-01-23T06:45:52.342Z,9.27
2023-01-23T06:51:01.283Z,9.00
2023-01-23T06:56:09.095Z,8.73
2023-01-23T07:01:17.854Z,9.47
2023-01-23T07:06:32.003Z,8.57
2023-01-23T07:11:37.739Z,10.47
2023-01-23T07:16:43.879Z,8.50
2023-01-23T07:21:50.745Z,9.77
2023-01-23T07:26:56.144Z,9.37
2023-01-23T07:32:01.637Z,8.50
2023-01-23T07:37:07.169Z,8.33
2023-01-23T07:42:13.009Z,9.00
2023-01-23T07:47:19.730Z,8.00
2023-01-23T07:52:25.416Z,8.57
2023-01-23T07:57:31.061Z,9.13
2023-01-23T08:02:37.925Z,10.03
2023-01-23T08:07:44.303Z,9.40
2023-01-23T08:12:49.755Z,9.87
2023-01-23T08:17:55.685Z,10.37
2023-01-23T08:23:02.585Z,10.60
2023-01-23T08:28:08.112Z,10.10
2023-01-23T08:33:13.715Z,8.93
2023-01-23T08:38:19.904Z,10.70
2023-01-23T08:43:25.361Z,9.47
2023-01-23T08:48:31.414Z,9.00
2023-01-23T08:53:37.851Z,9.67
2023-01-23T08:58:43.552Z,9.33
2023-01-23T09:03:49.395Z,9.43
2023-01-23T09:08:54.934Z,8.80
2023-01-23T09:14:00.319Z,7.97
2023-01-23T09:19:05.694Z,8.10
2023-01-23T09:24:11.288Z,7.67
2023-01-23T09:29:17.125Z,7.70
2023-01-23T09:34:22.597Z,7.70
2023-01-23T09:39:28.203Z,8.73
2023-01-23T09:44:53.273Z,8.23
2023-01-23T09:50:02.171Z,7.50
2023-01-23T09:55:16.484Z,7.80
2023-01-23T10:00:33.087Z,8.30
2023-01-23T10:05:58.271Z,8.37
2023-01-23T10:11:30.391Z,8.07
2023-01-23T10:16:50.416Z,9.90
2023-01-23T10:22:00.455Z,9.77
2023-01-23T10:27:14.461Z,9.37
2023-01-23T10:38:04.582Z,8.13
2023-01-23T10:43:15.373Z,7.93
2023-01-23T10:48:39.593Z,7.33
2023-01-23T10:53:45.318Z,7.10
2023-01-23T10:58:51.442Z,7.07
2023-01-23T11:03:57.607Z,6.20
2023-01-23T11:09:04.838Z,6.47
2023-01-23T11:14:17.978Z,5.93
2023-01-23T11:19:24.540Z,6.23
2023-01-23T11:24:40.867Z,5.80
2023-01-23T11:29:58.652Z,6.27
2023-01-23T11:35:16.036Z,6.40
2023-01-23T11:40:22.011Z,6.70
2023-01-23T11:45:33.049Z,5.97
2023-01-23T11:50:54.950Z,6.27
2023-01-23T11:55:57.289Z,5.80
2023-01-23T12:01:25.333Z,7.13
2023-01-23T12:06:42.617Z,5.83
2023-01-23T12:12:06.032Z,6.47
2023-01-23T12:17:29.685Z,6.70
2023-01-23T12:22:38.158Z,6.80
2023-01-23T12:27:46.179Z,6.57
2023-01-23T12:33:14.659Z,6.63
2023-01-23T12:38:35.179Z,6.60
2023-01-23T12:43:43.621Z,6.63
2023-01-23T12:49:01.189Z,6.33
2023-01-23T12:54:09.622Z,6.67
2023-01-23T12:59:20.833Z,7.43
2023-01-23T13:04:44.878Z,6.73
2023-01-23T13:09:57.404Z,7.23
2023-01-23T13:15:30.832Z,7.80
2023-01-23T13:20:55.297Z,7.27
2023-01-23T13:26:22.189Z,6.87
2023-01-23T13:31:47.293Z,7.27
2023-01-23T13:36:54.099Z,7.10
2023-01-23T13:42:18.665Z,6.83
2023-01-23T13:47:45.145Z,7.17
2023-01-23T13:53:14.218Z,7.10
2023-01-23T13:58:22.594Z,5.47
2023-01-23T14:03:48.799Z,6.80
2023-01-23T14:08:55.960Z,6.90
2023-01-23T14:14:21.590Z,8.87
2023-01-23T14:19:31.495Z,8.77
2023-01-23T14:24:46.113Z,8.30
2023-01-23T14:30:02.999Z,6.97
2023-01-23T14:35:21.117Z,7.07
2023-01-23T14:40:33.232Z,7.37
2023-01-23T14:45:35.551Z,7.37
2023-01-23T14:50:41.209Z,7.03
2023-01-23T14:55:50.752Z,7.43
2023-01-23T15:00:56.980Z,7.70
2023-01-23T15:06:05.614Z,8.33
2023-01-23T15:11:13.359Z,7.87
2023-01-23T15:16:29.121Z,12.27
2023-01-23T15:21:40.864Z,20.25
2023-01-23T15:26:51.732Z,15.47
2023-01-23T15:32:00.687Z,14.03
2023-01-23T15:37:21.347Z,13.20
2023-01-23T15:42:35.280Z,12.30
2023-01-23T15:47:40.830Z,11.87
2023-01-23T15:52:49.240Z,9.87
2023-01-23T15:57:55.966Z,10.37
2023-01-23T16:03:01.767Z,12.60
2023-01-23T16:08:09.503Z,11.60
2023-01-23T16:13:15.619Z,10.10
2023-01-23T16:18:21.275Z,9.00
2023-01-23T16:23:31.227Z,9.00
2023-01-23T16:28:34.210Z,7.33
2023-01-23T16:33:39.677Z,7.27
2023-01-23T16:38:51.790Z,7.67
2023-01-23T16:43:57.401Z,7.93
2023-01-23T16:49:02.876Z,8.30
2023-01-23T16:54:18.250Z,8.03
2023-01-23T16:59:20.548Z,8.33
2023-01-23T17:04:26.000Z,8.47
2023-01-23T17:09:31.467Z,8.20
2023-01-23T17:14:38.194Z,9.33
2023-01-23T17:19:45.259Z,7.80
2023-01-23T17:24:50.878Z,8.13
2023-01-23T17:29:56.407Z,7.07
2023-01-23T17:35:04.234Z,7.30
2023-01-23T17:40:12.904Z,6.57
2023-01-23T17:45:21.044Z,6.43
2023-01-23T17:50:27.914Z,5.83
2023-01-23T17:55:33.500Z,6.30
2023-01-23T18:00:40.632Z,7.57
2023-01-23T18:05:46.187Z,8.03
2023-01-23T18:10:54.066Z,8.17
2023-01-23T18:16:26.840Z,7.07
2023-01-23T18:21:32.736Z,6.80
2023-01-23T18:26:59.969Z,6.30
2023-01-23T18:32:24.817Z,6.53
2023-01-23T18:37:48.632Z,7.33
2023-01-23T18:43:03.028Z,8.50
2023-01-23T18:48:24.729Z,7.87
2023-01-23T18:53:28.273Z,7.73
2023-01-23T18:58:50.291Z,6.97
2023-01-23T19:03:57.453Z,7.53
2023-01-23T19:09:03.589Z,7.70
2023-01-23T19:14:17.683Z,6.53
2023-01-23T19:19:28.923Z,6.47
2023-01-23T19:24:34.624Z,7.53
2023-01-23T19:29:41.330Z,6.73
2023-01-23T19:34:46.786Z,7.37
2023-01-23T19:39:52.166Z,7.90
2023-01-23T19:44:57.562Z,6.43
2023-01-23T19:50:03.028Z,6.80
2023-01-23T19:55:08.800Z,7.23
2023-01-23T20:00:18.619Z,6.13
2023-01-23T20:05:24.957Z,8.20
2023-01-23T20:10:30.566Z,7.63
2023-01-23T20:15:36.058Z,9.57
2023-01-23T20:20:41.601Z,10.53
2023-01-23T20:25:47.180Z,8.93
2023-01-23T20:30:54.303Z,8.50
2023-01-23T20:35:59.918Z,11.97
2023-01-23T20:41:07.925Z,8.60
2023-01-23T20:46:15.627Z,8.60
2023-01-23T20:51:21.179Z,8.30
2023-01-23T20:56:28.294Z,9.07
2023-01-23T21:01:54.397Z,8.00
2023-01-23T21:07:00.220Z,7.40
2023-01-23T21:12:06.299Z,7.80
2023-01-23T21:17:12.052Z,8.27
2023-01-23T21:22:17.468Z,7.43
2023-01-23T21:27:25.131Z,8.00
2023-01-23T21:32:30.300Z,9.03
2023-01-23T21:37:36.189Z,9.20
2023-01-23T21:42:41.868Z,8.27
2023-01-23T21:47:47.380Z,9.20
2023-01-23T21:52:52.902Z,8.97
2023-01-23T21:57:58.377Z,8.00
2023-01-23T22:03:03.937Z,10.40
2023-01-23T22:08:09.454Z,8.90
2023-01-23T22:13:15.089Z,9.30
2023-01-23T22:18:20.482Z,9.47
2023-01-23T22:23:26.906Z,9.57
2023-01-23T22:28:33.645Z,9.83
2023-01-23T22:33:43.995Z,10.73
2023-01-23T22:38:54.038Z,11.17
2023-01-23T22:44:02.335Z,10.07
2023-01-23T22:49:07.808Z,9.10
2023-01-23T22:54:13.434Z,9.87
2023-01-23T22:59:18.823Z,8.60
2023-01-23T23:04:24.242Z,9.87
2023-01-23T23:09:29.952Z,10.23
2023-01-23T23:14:37.021Z,9.47
2023-01-23T23:19:42.494Z,10.90
2023-01-23T23:24:49.505Z,10.70
2023-01-23T23:29:54.916Z,10.73
2023-01-23T23:35:00.446Z,11.17
2023-01-23T23:40:06.919Z,10.90
2023-01-23T23:45:12.861Z,11.27
2023-01-23T23:50:18.771Z,10.43
2023-01-23T23:55:24.158Z,9.43
